createdAt,value
2018-12-19T00:02:17.621Z,8.47
2018-12-19T00:04:45.075Z,7.90
2018-12-19T00:07:12.637Z,7.80
2018-12-19T00:09:40.185Z,7.77
2018-12-19T00:12:07.654Z,8.23
2018-12-19T00:14:35.303Z,8.37
2018-12-19T00:17:02.755Z,8.03
2018-12-19T00:19:30.322Z,7.63
2018-12-19T00:21:57.761Z,7.17
2018-12-19T00:24:25.445Z,7.53
2018-12-19T00:26:53.182Z,6.77
2018-12-19T00:29:20.634Z,8.20
2018-12-19T00:31:48.293Z,8.07
2018-12-19T00:34:15.958Z,7.30
2018-12-19T00:36:43.611Z,8.00
2018-12-19T00:39:11.277Z,7.07
2018-12-19T00:41:38.836Z,7.63
2018-12-19T00:44:06.289Z,7.97
2018-12-19T00:46:33.838Z,8.10
2018-12-19T00:49:01.498Z,7.43
2018-12-19T00:51:28.954Z,7.57
2018-12-19T00:53:56.410Z,8.57
2018-12-19T00:56:23.854Z,7.43
2018-12-19T00:58:51.314Z,8.03
2018-12-19T01:01:18.782Z,6.63
2018-12-19T01:03:46.421Z,6.83
2018-12-19T01:06:13.877Z,5.40
2018-12-19T01:08:41.329Z,6.67
2018-12-19T01:11:08.781Z,7.07
2018-12-19T01:13:36.445Z,7.20
2018-12-19T01:16:04.098Z,7.30
2018-12-19T01:18:31.669Z,6.50
2018-12-19T01:20:59.117Z,6.57
2018-12-19T01:23:26.669Z,6.53
2018-12-19T01:25:54.221Z,6.90
2018-12-19T01:28:21.792Z,6.10
2018-12-19T01:30:49.443Z,6.60
2018-12-19T01:33:17.107Z,5.87
2018-12-19T01:35:44.561Z,5.43
2018-12-19T01:38:12.029Z,7.20
2018-12-19T01:40:39.467Z,6.73
2018-12-19T01:43:06.923Z,5.67
2018-12-19T01:45:34.485Z,7.10
2018-12-19T01:48:02.649Z,5.47
2018-12-19T01:50:30.205Z,5.43
2018-12-19T01:52:57.867Z,5.37
2018-12-19T01:55:25.422Z,5.97
2018-12-19T01:57:52.979Z,7.43
2018-12-19T02:00:22.390Z,6.30
2018-12-19T02:02:49.837Z,6.00
2018-12-19T02:05:17.481Z,5.03
2018-12-19T02:07:44.946Z,5.63
2018-12-19T02:10:12.596Z,6.07
2018-12-19T02:12:40.158Z,5.57
2018-12-19T02:15:07.822Z,7.37
2018-12-19T02:17:35.362Z,5.03
2018-12-19T02:20:03.232Z,5.10
2018-12-19T02:22:30.678Z,5.93
2018-12-19T02:24:58.244Z,5.67
2018-12-19T02:27:25.699Z,4.87
2018-12-19T02:29:53.278Z,6.40
2018-12-19T02:32:20.723Z,5.47
2018-12-19T02:34:48.366Z,5.43
2018-12-19T02:37:15.809Z,5.13
2018-12-19T02:39:43.291Z,5.30
2018-12-19T02:42:10.926Z,5.03
2018-12-19T02:44:38.437Z,4.93
2018-12-19T02:47:06.093Z,5.93
2018-12-19T02:49:33.750Z,5.50
2018-12-19T02:52:01.332Z,5.83
2018-12-19T02:54:28.810Z,4.77
2018-12-19T02:56:56.465Z,5.57
2018-12-19T02:59:24.123Z,5.53
2018-12-19T03:01:51.576Z,5.10
2018-12-19T03:04:19.025Z,5.30
2018-12-19T03:06:46.698Z,5.50
2018-12-19T03:09:14.350Z,4.70
2018-12-19T03:11:41.815Z,5.03
2018-12-19T03:14:09.270Z,6.13
2018-12-19T03:16:36.853Z,4.80
2018-12-19T03:19:04.424Z,5.57
2018-12-19T03:21:31.938Z,4.63
2018-12-19T03:23:59.495Z,4.13
2018-12-19T03:26:27.140Z,5.10
2018-12-19T03:28:54.809Z,5.43
2018-12-19T03:31:22.466Z,5.77
2018-12-19T03:33:49.925Z,5.67
2018-12-19T03:36:17.571Z,5.13
2018-12-19T03:38:45.143Z,5.33
2018-12-19T03:41:12.882Z,4.10
2018-12-19T03:43:40.344Z,3.87
2018-12-19T03:46:07.985Z,4.27
2018-12-19T03:51:30.779Z,4.57
2018-12-19T03:53:58.409Z,4.00
2018-12-19T03:56:25.966Z,4.77
2018-12-19T03:58:53.527Z,3.83
2018-12-19T04:01:20.978Z,3.97
2018-12-19T04:03:48.638Z,4.30
2018-12-19T04:06:16.296Z,4.07
2018-12-19T04:08:43.778Z,4.47
2018-12-19T04:11:11.211Z,3.37
2018-12-19T04:13:38.748Z,3.97
2018-12-19T04:16:06.240Z,5.03
2018-12-19T04:18:33.985Z,4.13
2018-12-19T04:21:01.654Z,4.67
2018-12-19T04:23:29.208Z,4.80
2018-12-19T04:25:56.671Z,4.17
2018-12-19T04:28:24.323Z,4.27
2018-12-19T04:30:51.861Z,4.63
2018-12-19T04:33:19.319Z,4.17
2018-12-19T04:35:46.921Z,4.17
2018-12-19T04:38:14.702Z,3.77
2018-12-19T04:40:42.157Z,4.90
2018-12-19T04:43:09.754Z,4.10
2018-12-19T04:45:37.415Z,3.97
2018-12-19T04:48:04.896Z,3.87
2018-12-19T04:50:32.333Z,3.93
2018-12-19T04:52:59.969Z,3.63
2018-12-19T04:55:27.633Z,4.07
2018-12-19T04:57:55.112Z,3.10
2018-12-19T05:00:22.747Z,3.57
2018-12-19T05:02:50.410Z,4.10
2018-12-19T05:05:17.859Z,3.47
2018-12-19T05:07:45.542Z,3.60
2018-12-19T05:10:13.194Z,3.07
2018-12-19T05:12:40.750Z,3.50
2018-12-19T05:15:08.238Z,3.10
2018-12-19T05:17:35.746Z,3.00
2018-12-19T05:20:05.504Z,2.30
2018-12-19T05:22:32.937Z,2.47
2018-12-19T05:25:00.383Z,2.90
2018-12-19T05:27:28.016Z,2.73
2018-12-19T05:29:55.585Z,2.60
2018-12-19T05:32:23.334Z,1.53
2018-12-19T05:34:50.894Z,2.47
2018-12-19T05:37:18.446Z,2.93
2018-12-19T05:39:46.109Z,2.33
2018-12-19T05:42:13.761Z,2.73
2018-12-19T05:44:41.470Z,2.10
2018-12-19T05:47:09.758Z,1.83
2018-12-19T05:49:37.561Z,2.53
2018-12-19T05:52:05.214Z,3.43
2018-12-19T05:54:32.789Z,2.30
2018-12-19T05:57:00.343Z,2.83
2018-12-19T05:59:27.986Z,1.40
2018-12-19T06:01:55.482Z,1.80
2018-12-19T06:04:22.980Z,2.47
2018-12-19T06:06:50.442Z,1.97
2018-12-19T06:09:17.904Z,1.90
2018-12-19T06:11:45.463Z,1.97
2018-12-19T06:14:12.913Z,1.60
2018-12-19T06:16:40.578Z,1.70
2018-12-19T06:19:08.230Z,1.70
2018-12-19T06:21:35.691Z,2.50
2018-12-19T06:24:03.176Z,2.33
2018-12-19T06:26:30.711Z,2.77
2018-12-19T06:28:58.447Z,2.10
2018-12-19T06:31:25.909Z,2.47
2018-12-19T06:33:53.613Z,1.97
2018-12-19T06:36:21.065Z,2.53
2018-12-19T06:38:48.518Z,2.27
2018-12-19T06:41:16.138Z,2.13
2018-12-19T06:43:43.581Z,2.07
2018-12-19T06:46:11.045Z,1.27
2018-12-19T06:48:38.497Z,1.50
2018-12-19T06:51:06.216Z,1.77
2018-12-19T06:53:33.821Z,1.43
2018-12-19T06:56:01.469Z,1.90
2018-12-19T06:58:29.133Z,1.83
2018-12-19T07:00:56.701Z,1.93
2018-12-19T07:03:24.145Z,2.20
2018-12-19T07:05:51.815Z,1.67
2018-12-19T07:08:19.289Z,2.17
2018-12-19T07:10:47.014Z,1.53
2018-12-19T07:13:14.474Z,1.83
2018-12-19T07:15:42.036Z,1.73
2018-12-19T07:18:09.581Z,1.83
2018-12-19T07:20:37.145Z,1.97
2018-12-19T07:23:04.898Z,2.47
2018-12-19T07:25:32.350Z,1.80
2018-12-19T07:27:59.886Z,1.87
2018-12-19T07:30:27.352Z,1.90
2018-12-19T07:32:54.814Z,1.90
2018-12-19T07:35:22.269Z,2.50
2018-12-19T07:37:49.708Z,2.30
2018-12-19T07:40:17.161Z,2.97
2018-12-19T07:42:44.738Z,3.60
2018-12-19T07:45:12.189Z,3.70
2018-12-19T07:47:39.626Z,2.77
2018-12-19T07:50:07.213Z,3.53
2018-12-19T07:52:34.659Z,2.67
2018-12-19T07:55:02.209Z,2.90
2018-12-19T07:57:29.872Z,2.60
2018-12-19T07:59:57.525Z,2.30
2018-12-19T08:02:25.034Z,2.17
2018-12-19T08:04:52.901Z,1.80
2018-12-19T08:07:20.332Z,1.57
2018-12-19T08:09:47.810Z,1.50
2018-12-19T08:12:15.418Z,1.77
2018-12-19T08:14:42.855Z,1.33
2018-12-19T08:17:10.298Z,1.23
2018-12-19T08:19:37.778Z,1.67
2018-12-19T08:22:05.434Z,1.97
2018-12-19T08:24:32.881Z,2.07
2018-12-19T08:27:00.556Z,1.63
2018-12-19T08:29:28.198Z,1.50
2018-12-19T08:31:55.712Z,2.03
2018-12-19T08:34:23.178Z,1.87
2018-12-19T08:36:50.762Z,1.37
2018-12-19T08:39:18.461Z,1.50
2018-12-19T08:41:46.354Z,1.80
2018-12-19T08:44:13.961Z,1.40
2018-12-19T08:46:41.608Z,1.57
2018-12-19T08:49:09.061Z,1.47
2018-12-19T08:51:36.722Z,1.60
2018-12-19T08:54:04.172Z,1.67
2018-12-19T08:56:31.642Z,1.47
2018-12-19T08:58:59.201Z,1.33
2018-12-19T09:01:26.958Z,1.67
2018-12-19T09:03:54.601Z,2.07
2018-12-19T09:06:22.262Z,1.50
2018-12-19T09:08:49.725Z,1.63
2018-12-19T09:11:17.374Z,2.50
2018-12-19T09:13:44.835Z,1.10
2018-12-19T09:16:12.297Z,1.10
2018-12-19T09:18:39.794Z,1.40
2018-12-19T09:21:07.400Z,1.10
2018-12-19T09:23:34.846Z,1.30
2018-12-19T09:26:02.302Z,1.17
2018-12-19T09:28:29.875Z,1.00
2018-12-19T09:30:58.066Z,0.97
2018-12-19T09:33:27.580Z,1.00
2018-12-19T09:35:54.947Z,1.20
2018-12-19T09:38:22.440Z,1.23
2018-12-19T09:40:50.038Z,1.30
2018-12-19T09:43:17.554Z,1.30
2018-12-19T09:45:45.016Z,1.50
2018-12-19T09:48:12.781Z,1.40
2018-12-19T09:50:40.217Z,1.20
2018-12-19T09:53:07.773Z,1.70
2018-12-19T09:55:35.256Z,1.10
2018-12-19T09:58:02.882Z,1.40
2018-12-19T10:00:30.405Z,1.40
2018-12-19T10:02:57.848Z,1.30
2018-12-19T10:05:25.768Z,1.43
2018-12-19T10:07:53.313Z,1.47
2018-12-19T10:10:20.765Z,1.30
2018-12-19T10:12:48.345Z,1.67
2018-12-19T10:15:15.792Z,1.63
2018-12-19T10:17:43.334Z,1.30
2018-12-19T10:20:10.846Z,1.30
2018-12-19T10:22:38.449Z,1.60
2018-12-19T10:25:12.332Z,1.20
2018-12-19T10:27:39.895Z,1.37
2018-12-19T10:30:10.021Z,1.17
2018-12-19T10:32:38.381Z,1.50
2018-12-19T10:35:07.209Z,1.60
2018-12-19T10:37:34.845Z,1.30
2018-12-19T10:40:02.581Z,1.10
2018-12-19T10:42:30.027Z,1.10
2018-12-19T10:44:57.453Z,1.20
2018-12-19T10:47:24.901Z,1.27
2018-12-19T10:49:52.331Z,1.00
2018-12-19T10:52:19.829Z,1.00
2018-12-19T10:54:47.429Z,0.97
2018-12-19T10:57:15.005Z,1.30
2018-12-19T10:59:42.436Z,1.40
2018-12-19T11:02:10.001Z,1.10
2018-12-19T11:04:37.653Z,1.30
2018-12-19T11:07:05.109Z,1.30
2018-12-19T11:09:32.682Z,0.80
2018-12-19T11:12:00.130Z,1.30
2018-12-19T11:14:27.708Z,1.10
2018-12-19T11:16:58.005Z,1.20
2018-12-19T11:19:25.658Z,1.30
2018-12-19T11:21:53.318Z,1.40
2018-12-19T11:24:22.466Z,1.43
2018-12-19T11:26:50.133Z,1.20
2018-12-19T11:29:17.585Z,0.97
2018-12-19T11:31:45.063Z,1.10
2018-12-19T11:34:12.630Z,1.40
2018-12-19T11:36:40.218Z,0.90
2018-12-19T11:39:07.750Z,1.40
2018-12-19T11:41:38.965Z,1.47
2018-12-19T11:44:04.635Z,1.50
2018-12-19T11:46:32.265Z,1.20
2018-12-19T11:48:59.809Z,1.50
2018-12-19T11:51:27.465Z,1.37
2018-12-19T11:53:54.921Z,1.27
2018-12-19T11:56:22.378Z,1.30
2018-12-19T11:58:49.825Z,1.47
2018-12-19T12:01:17.286Z,1.10
2018-12-19T12:03:44.730Z,1.27
2018-12-19T12:06:12.398Z,1.20
2018-12-19T12:08:39.869Z,1.30
2018-12-19T12:11:07.509Z,1.70
2018-12-19T12:13:35.165Z,1.03
2018-12-19T12:16:02.745Z,1.57
2018-12-19T12:18:30.190Z,1.47
2018-12-19T12:20:57.621Z,1.33
2018-12-19T12:23:25.081Z,1.20
2018-12-19T12:25:52.558Z,1.37
2018-12-19T12:28:20.019Z,1.50
2018-12-19T12:30:47.536Z,4.83
2018-12-19T12:33:15.241Z,5.67
2018-12-19T12:35:43.141Z,4.93
2018-12-19T12:38:10.585Z,4.23
2018-12-19T12:40:38.040Z,3.93
2018-12-19T12:43:05.475Z,2.40
2018-12-19T12:45:32.952Z,2.50
2018-12-19T12:48:00.539Z,3.40
2018-12-19T12:50:28.002Z,3.90
2018-12-19T12:52:55.718Z,2.53
2018-12-19T12:55:23.317Z,3.17
2018-12-19T12:57:50.754Z,3.27
2018-12-19T13:00:18.426Z,3.63
2018-12-19T13:02:45.908Z,2.07
2018-12-19T13:05:13.689Z,1.30
2018-12-19T13:07:41.205Z,0.93
2018-12-19T13:10:09.066Z,1.33
2018-12-19T13:12:36.498Z,1.50
2018-12-19T13:15:05.406Z,1.07
2018-12-19T13:17:33.061Z,1.30
2018-12-19T13:20:00.721Z,1.30
2018-12-19T13:22:28.170Z,1.00
2018-12-19T13:24:55.834Z,1.30
2018-12-19T13:27:23.470Z,1.50
2018-12-19T13:29:50.925Z,1.57
2018-12-19T13:32:18.712Z,1.70
2018-12-19T13:34:46.472Z,1.53
2018-12-19T13:37:14.133Z,1.27
2018-12-19T13:39:41.602Z,1.30
2018-12-19T13:42:09.247Z,1.70
2018-12-19T13:44:36.801Z,1.53
2018-12-19T13:47:04.358Z,1.43
2018-12-19T13:49:31.924Z,1.43
2018-12-19T13:51:59.466Z,1.27
2018-12-19T13:54:27.137Z,1.30
2018-12-19T13:56:54.588Z,1.83
2018-12-19T13:59:22.240Z,1.83
2018-12-19T14:01:49.697Z,1.97
2018-12-19T14:04:17.214Z,1.70
2018-12-19T14:06:44.806Z,1.93
2018-12-19T14:09:12.461Z,2.10
2018-12-19T14:11:40.122Z,1.67
2018-12-19T14:14:07.793Z,1.50
2018-12-19T14:16:35.230Z,1.80
2018-12-19T14:19:02.906Z,1.93
2018-12-19T14:21:30.344Z,1.97
2018-12-19T14:23:57.862Z,2.00
2018-12-19T14:26:25.485Z,1.87
2018-12-19T14:28:53.094Z,2.07
2018-12-19T14:31:20.773Z,1.70
2018-12-19T14:33:48.237Z,1.87
2018-12-19T14:36:15.689Z,2.10
2018-12-19T14:38:43.139Z,2.00
2018-12-19T14:41:10.613Z,1.70
2018-12-19T14:43:38.130Z,2.00
2018-12-19T14:46:05.761Z,2.37
2018-12-19T14:48:33.361Z,1.83
2018-12-19T14:51:01.085Z,1.77
2018-12-19T14:53:28.677Z,1.43
2018-12-19T14:55:56.337Z,2.20
2018-12-19T14:58:23.805Z,1.97
2018-12-19T15:00:51.278Z,2.10
2018-12-19T15:03:18.716Z,2.07
2018-12-19T15:05:46.357Z,2.20
2018-12-19T15:08:13.813Z,2.60
2018-12-19T15:10:41.477Z,2.33
2018-12-19T15:13:09.036Z,2.37
2018-12-19T15:15:36.513Z,2.63
2018-12-19T15:18:04.038Z,2.13
2018-12-19T15:20:31.709Z,2.60
2018-12-19T15:22:59.366Z,2.47
2018-12-19T15:25:26.996Z,1.87
2018-12-19T15:27:54.429Z,2.57
2018-12-19T15:30:21.876Z,2.40
2018-12-19T15:32:49.609Z,2.10
2018-12-19T15:35:17.146Z,2.40
2018-12-19T15:37:44.695Z,5.57
2018-12-19T15:40:12.351Z,3.73
2018-12-19T15:42:40.005Z,3.00
2018-12-19T15:45:07.529Z,3.13
2018-12-19T15:47:35.107Z,3.63
2018-12-19T15:50:03.394Z,9.80
2018-12-19T15:52:31.073Z,18.20
2018-12-19T15:54:58.609Z,2.63
2018-12-19T15:57:26.086Z,3.20
2018-12-19T15:59:53.821Z,2.77
2018-12-19T16:02:21.512Z,2.80
2018-12-19T16:04:48.936Z,2.80
2018-12-19T16:07:16.378Z,12.43
2018-12-19T16:09:43.960Z,29.37
2018-12-19T16:12:13.562Z,2.90
2018-12-19T16:14:41.006Z,2.70
2018-12-19T16:17:08.489Z,3.30
2018-12-19T16:19:36.118Z,2.57
2018-12-19T16:22:03.691Z,2.63
2018-12-19T16:24:31.225Z,2.70
2018-12-19T16:26:58.687Z,2.30
2018-12-19T16:29:26.358Z,2.83
2018-12-19T16:31:53.997Z,2.47
2018-12-19T16:34:21.483Z,2.97
2018-12-19T16:36:49.041Z,2.20
2018-12-19T16:39:16.566Z,2.87
2018-12-19T16:41:44.153Z,2.17
2018-12-19T16:44:11.681Z,2.40
2018-12-19T16:46:39.338Z,2.77
2018-12-19T16:49:06.806Z,2.90
2018-12-19T16:51:34.454Z,2.50
2018-12-19T16:54:01.910Z,3.00
2018-12-19T16:56:29.366Z,3.00
2018-12-19T16:58:56.802Z,3.20
2018-12-19T17:01:24.265Z,3.90
2018-12-19T17:03:51.723Z,3.03
2018-12-19T17:06:19.171Z,3.80
2018-12-19T17:08:46.631Z,4.20
2018-12-19T17:11:14.105Z,4.57
2018-12-19T17:13:41.616Z,3.77
2018-12-19T17:16:09.189Z,3.47
2018-12-19T17:18:36.637Z,3.63
2018-12-19T17:21:04.305Z,3.83
2018-12-19T17:23:31.761Z,3.33
2018-12-19T17:25:59.420Z,3.07
2018-12-19T17:28:26.875Z,5.73
2018-12-19T17:30:54.529Z,3.33
2018-12-19T17:33:22.198Z,2.97
2018-12-19T17:35:49.852Z,2.67
2018-12-19T17:38:17.506Z,2.80
2018-12-19T17:40:45.174Z,2.27
2018-12-19T17:43:12.822Z,2.70
2018-12-19T17:45:40.482Z,2.40
2018-12-19T17:48:07.939Z,3.43
2018-12-19T17:50:35.513Z,2.90
2018-12-19T17:53:03.082Z,2.37
2018-12-19T17:55:30.710Z,3.80
2018-12-19T17:57:58.276Z,2.30
2018-12-19T18:00:26.061Z,2.03
2018-12-19T18:02:53.697Z,2.30
2018-12-19T18:05:21.154Z,2.60
2018-12-19T18:07:48.801Z,2.53
2018-12-19T18:10:16.474Z,5.50
2018-12-19T18:12:43.951Z,3.90
2018-12-19T18:15:11.478Z,3.30
2018-12-19T18:17:39.127Z,3.07
2018-12-19T18:20:06.736Z,2.40
2018-12-19T18:22:34.379Z,2.53
2018-12-19T18:25:01.876Z,2.37
2018-12-19T18:27:29.393Z,2.60
2018-12-19T18:29:57.113Z,2.87
2018-12-19T18:32:24.562Z,3.10
2018-12-19T18:34:52.225Z,2.50
2018-12-19T18:37:19.702Z,2.87
2018-12-19T18:39:47.339Z,2.97
2018-12-19T18:42:15.000Z,3.43
2018-12-19T18:44:42.439Z,2.67
2018-12-19T18:47:10.106Z,2.53
2018-12-19T18:49:37.761Z,2.53
2018-12-19T18:52:05.421Z,2.50
2018-12-19T18:54:33.006Z,3.13
2018-12-19T18:57:00.538Z,3.70
2018-12-19T18:59:28.060Z,2.93
2018-12-19T19:01:55.649Z,2.50
2018-12-19T19:04:23.310Z,2.63
2018-12-19T19:06:50.966Z,3.63
2018-12-19T19:09:18.625Z,3.17
2018-12-19T19:11:46.090Z,2.70
2018-12-19T19:14:13.578Z,2.87
2018-12-19T19:16:41.206Z,3.10
2018-12-19T19:19:08.867Z,3.10
2018-12-19T19:21:36.587Z,3.47
2018-12-19T19:24:04.102Z,3.00
2018-12-19T19:26:31.869Z,2.90
2018-12-19T19:28:59.393Z,3.23
2018-12-19T19:31:26.838Z,3.20
2018-12-19T19:33:54.401Z,3.47
2018-12-19T19:36:22.054Z,3.50
2018-12-19T19:38:49.721Z,28.03
2018-12-19T19:41:17.206Z,18.70
2018-12-19T19:43:44.685Z,12.67
2018-12-19T19:46:12.186Z,25.27
2018-12-19T19:48:39.735Z,7.20
2018-12-19T19:51:07.369Z,5.13
2018-12-19T19:53:34.807Z,7.57
2018-12-19T19:56:02.513Z,12.37
2018-12-19T19:58:29.953Z,5.07
2018-12-19T20:00:57.609Z,19.77
2018-12-19T20:03:25.064Z,12.33
2018-12-19T20:05:52.725Z,14.37
2018-12-19T20:08:20.182Z,9.93
2018-12-19T20:10:47.654Z,4.00
2018-12-19T20:13:15.188Z,3.83
2018-12-19T20:15:42.747Z,4.40
2018-12-19T20:18:10.211Z,3.97
2018-12-19T20:20:37.747Z,4.10
2018-12-19T20:23:05.308Z,4.17
2018-12-19T20:25:33.042Z,3.83
2018-12-19T20:28:00.482Z,3.87
2018-12-19T20:30:27.915Z,2.97
2018-12-19T20:32:55.357Z,2.70
2018-12-19T20:35:22.887Z,2.90
2018-12-19T20:37:50.335Z,2.60
2018-12-19T20:40:17.903Z,2.43
2018-12-19T20:42:45.581Z,2.73
2018-12-19T20:45:13.441Z,3.07
2018-12-19T20:47:41.258Z,3.13
2018-12-19T20:50:09.340Z,3.60
2018-12-19T20:52:36.874Z,3.90
2018-12-19T20:55:04.965Z,2.63
2018-12-19T20:57:32.752Z,3.27
2018-12-19T21:00:00.427Z,3.57
2018-12-19T21:02:27.943Z,2.70
2018-12-19T21:04:55.374Z,2.80
2018-12-19T21:07:22.873Z,3.07
2018-12-19T21:09:50.630Z,2.87
2018-12-19T21:12:18.090Z,3.10
2018-12-19T21:14:45.536Z,2.67
2018-12-19T21:17:18.677Z,2.10
2018-12-19T21:19:46.378Z,1.97
2018-12-19T21:22:14.030Z,2.10
2018-12-19T21:24:41.475Z,2.20
2018-12-19T21:27:08.937Z,2.17
2018-12-19T21:29:36.512Z,2.67
2018-12-19T21:32:04.057Z,2.47
2018-12-19T21:34:31.588Z,2.40
2018-12-19T21:36:59.169Z,2.63
2018-12-19T21:39:26.818Z,2.50
2018-12-19T21:41:54.280Z,2.50
2018-12-19T21:44:21.799Z,2.80
2018-12-19T21:46:49.438Z,2.50
2018-12-19T21:49:17.051Z,3.47
2018-12-19T21:51:44.624Z,2.63
2018-12-19T21:54:12.365Z,2.57
2018-12-19T21:56:39.902Z,2.50
2018-12-19T21:59:07.523Z,1.90
2018-12-19T22:01:35.146Z,2.70
2018-12-19T22:04:02.588Z,3.00
2018-12-19T22:06:30.094Z,2.37
2018-12-19T22:08:57.613Z,2.30
2018-12-19T22:11:25.365Z,1.90
2018-12-19T22:13:52.888Z,2.40
2018-12-19T22:16:26.077Z,2.57
2018-12-19T22:18:53.725Z,2.37
2018-12-19T22:21:21.169Z,2.60
2018-12-19T22:23:48.614Z,2.20
2018-12-19T22:26:16.270Z,2.67
2018-12-19T22:28:44.833Z,1.73
2018-12-19T22:31:12.581Z,2.80
2018-12-19T22:33:40.134Z,2.37
2018-12-19T22:36:07.740Z,2.77
2018-12-19T22:38:35.394Z,2.80
2018-12-19T22:41:02.870Z,2.20
2018-12-19T22:43:30.406Z,2.33
2018-12-19T22:45:58.031Z,2.50
2018-12-19T22:48:25.777Z,2.73
2018-12-19T22:50:53.345Z,2.40
2018-12-19T22:53:20.932Z,2.47
2018-12-19T22:55:48.543Z,2.73
2018-12-19T22:58:16.272Z,2.57
2018-12-19T23:00:49.594Z,2.63
2018-12-19T23:03:17.265Z,2.30
2018-12-19T23:05:50.744Z,2.90
2018-12-19T23:08:18.807Z,2.87
2018-12-19T23:10:46.355Z,2.57
2018-12-19T23:13:14.323Z,2.50
2018-12-19T23:15:42.077Z,3.70
2018-12-19T23:18:22.557Z,3.53
2018-12-19T23:20:50.112Z,3.37
2018-12-19T23:23:17.584Z,3.73
2018-12-19T23:25:45.319Z,3.33
2018-12-19T23:28:12.960Z,3.80
2018-12-19T23:30:40.583Z,4.23
2018-12-19T23:33:08.285Z,3.97
2018-12-19T23:35:35.909Z,3.83
2018-12-19T23:38:03.824Z,3.50
2018-12-19T23:40:31.629Z,4.07
2018-12-19T23:42:59.352Z,4.03
2018-12-19T23:45:27.120Z,3.87
2018-12-19T23:47:54.766Z,3.77
2018-12-19T23:50:22.213Z,3.37
2018-12-19T23:52:49.755Z,2.87
2018-12-19T23:55:17.318Z,3.47
2018-12-19T23:57:45.004Z,3.03
